sensor_id;sensor_type;location;lat;lon;timestamp;temperature;humidity
23721;DHT22;42950;52.134;5.578;2023-03-05T00:01:06;4.80;99.90
23721;DHT22;42950;52.134;5.578;2023-03-05T00:03:32;4.90;99.90
23721;DHT22;42950;52.134;5.578;2023-03-05T00:05:58;4.80;99.90
23721;DHT22;42950;52.134;5.578;2023-03-05T00:08:24;4.80;99.90
23721;DHT22;42950;52.134;5.578;2023-03-05T00:11:04;4.80;99.90
23721;DHT22;42950;52.134;5.578;2023-03-05T00:13:30;4.80;99.90
23721;DHT22;42950;52.134;5.578;2023-03-05T00:15:56;4.80;99.90
23721;DHT22;42950;52.134;5.578;2023-03-05T00:18:22;4.80;99.90
23721;DHT22;42950;52.134;5.578;2023-03-05T00:20:48;4.80;99.90
23721;DHT22;42950;52.134;5.578;2023-03-05T00:23:14;4.90;99.90
23721;DHT22;42950;52.134;5.578;2023-03-05T00:25:42;4.90;99.90
23721;DHT22;42950;52.134;5.578;2023-03-05T00:28:08;5.00;99.90
23721;DHT22;42950;52.134;5.578;2023-03-05T00:30:34;4.90;99.90
23721;DHT22;42950;52.134;5.578;2023-03-05T00:33:01;4.90;99.90
23721;DHT22;42950;52.134;5.578;2023-03-05T00:35:27;4.80;99.90
23721;DHT22;42950;52.134;5.578;2023-03-05T00:37:53;4.80;99.90
23721;DHT22;42950;52.134;5.578;2023-03-05T00:40:19;4.80;99.90
23721;DHT22;42950;52.134;5.578;2023-03-05T00:42:45;4.80;99.90
23721;DHT22;42950;52.134;5.578;2023-03-05T00:45:11;4.80;99.90
23721;DHT22;42950;52.134;5.578;2023-03-05T00:47:37;4.80;99.90
23721;DHT22;42950;52.134;5.578;2023-03-05T00:50:04;4.90;99.90
23721;DHT22;42950;52.134;5.578;2023-03-05T00:52:30;4.90;99.90
23721;DHT22;42950;52.134;5.578;2023-03-05T00:54:56;4.90;99.90
23721;DHT22;42950;52.134;5.578;2023-03-05T00:57:21;4.80;99.90
23721;DHT22;42950;52.134;5.578;2023-03-05T00:59:47;4.90;99.90
23721;DHT22;42950;52.134;5.578;2023-03-05T01:02:13;4.90;99.90
23721;DHT22;42950;52.134;5.578;2023-03-05T01:04:39;4.90;99.90
23721;DHT22;42950;52.134;5.578;2023-03-05T01:07:05;4.90;99.90
23721;DHT22;42950;52.134;5.578;2023-03-05T01:09:30;4.90;99.90
23721;DHT22;42950;52.134;5.578;2023-03-05T01:11:56;4.90;99.90
23721;DHT22;42950;52.134;5.578;2023-03-05T01:14:22;4.90;99.90
23721;DHT22;42950;52.134;5.578;2023-03-05T01:16:48;4.90;99.90
23721;DHT22;42950;52.134;5.578;2023-03-05T01:19:15;5.10;99.90
23721;DHT22;42950;52.134;5.578;2023-03-05T01:21:41;5.10;99.90
23721;DHT22;42950;52.134;5.578;2023-03-05T01:24:07;5.10;99.90
23721;DHT22;42950;52.134;5.578;2023-03-05T01:26:33;5.10;99.90
23721;DHT22;42950;52.134;5.578;2023-03-05T01:28:59;5.20;99.90
23721;DHT22;42950;52.134;5.578;2023-03-05T01:31:26;5.20;99.90
23721;DHT22;42950;52.134;5.578;2023-03-05T01:33:53;5.20;99.90
23721;DHT22;42950;52.134;5.578;2023-03-05T01:36:20;5.20;99.90
23721;DHT22;42950;52.134;5.578;2023-03-05T01:38:46;5.10;99.90
23721;DHT22;42950;52.134;5.578;2023-03-05T01:41:14;5.20;99.90
23721;DHT22;42950;52.134;5.578;2023-03-05T01:43:41;5.10;99.90
23721;DHT22;42950;52.134;5.578;2023-03-05T01:46:30;5.10;99.90
23721;DHT22;42950;52.134;5.578;2023-03-05T01:49:12;5.00;99.90
23721;DHT22;42950;52.134;5.578;2023-03-05T01:51:47;5.00;99.90
23721;DHT22;42950;52.134;5.578;2023-03-05T01:54:16;4.90;99.90
23721;DHT22;42950;52.134;5.578;2023-03-05T01:56:45;4.90;99.90
23721;DHT22;42950;52.134;5.578;2023-03-05T01:59:11;4.90;99.90
23721;DHT22;42950;52.134;5.578;2023-03-05T02:01:42;4.90;99.90
23721;DHT22;42950;52.134;5.578;2023-03-05T02:04:09;4.80;99.90
23721;DHT22;42950;52.134;5.578;2023-03-05T02:06:37;4.70;99.90
23721;DHT22;42950;52.134;5.578;2023-03-05T02:09:03;4.70;99.90
23721;DHT22;42950;52.134;5.578;2023-03-05T02:11:29;4.70;99.90
23721;DHT22;42950;52.134;5.578;2023-03-05T02:13:54;4.60;99.90
23721;DHT22;42950;52.134;5.578;2023-03-05T02:16:20;4.60;99.90
23721;DHT22;42950;52.134;5.578;2023-03-05T02:18:46;4.50;99.90
23721;DHT22;42950;52.134;5.578;2023-03-05T02:21:13;4.50;99.90
23721;DHT22;42950;52.134;5.578;2023-03-05T02:23:38;4.60;99.90
23721;DHT22;42950;52.134;5.578;2023-03-05T02:26:07;4.60;99.90
23721;DHT22;42950;52.134;5.578;2023-03-05T02:28:38;4.70;99.90
23721;DHT22;42950;52.134;5.578;2023-03-05T02:31:31;4.70;99.90
23721;DHT22;42950;52.134;5.578;2023-03-05T02:33:56;4.70;99.90
23721;DHT22;42950;52.134;5.578;2023-03-05T02:36:23;4.70;99.90
23721;DHT22;42950;52.134;5.578;2023-03-05T02:38:50;4.70;99.90
23721;DHT22;42950;52.134;5.578;2023-03-05T02:41:18;4.60;99.90
23721;DHT22;42950;52.134;5.578;2023-03-05T02:43:44;4.60;99.90
23721;DHT22;42950;52.134;5.578;2023-03-05T02:46:10;4.70;99.90
23721;DHT22;42950;52.134;5.578;2023-03-05T02:48:35;4.70;99.90
23721;DHT22;42950;52.134;5.578;2023-03-05T02:51:02;4.70;99.90
23721;DHT22;42950;52.134;5.578;2023-03-05T02:53:29;4.70;99.90
23721;DHT22;42950;52.134;5.578;2023-03-05T02:55:54;4.70;99.90
23721;DHT22;42950;52.134;5.578;2023-03-05T02:58:20;4.60;99.90
23721;DHT22;42950;52.134;5.578;2023-03-05T03:00:45;4.60;99.90
23721;DHT22;42950;52.134;5.578;2023-03-05T03:03:12;4.60;99.90
23721;DHT22;42950;52.134;5.578;2023-03-05T03:05:38;4.60;99.90
23721;DHT22;42950;52.134;5.578;2023-03-05T03:08:04;4.60;99.90
23721;DHT22;42950;52.134;5.578;2023-03-05T03:10:31;4.60;99.90
23721;DHT22;42950;52.134;5.578;2023-03-05T03:12:57;4.60;99.90
23721;DHT22;42950;52.134;5.578;2023-03-05T03:15:22;4.70;99.90
23721;DHT22;42950;52.134;5.578;2023-03-05T03:17:48;4.60;99.90
23721;DHT22;42950;52.134;5.578;2023-03-05T03:20:16;4.50;99.90
23721;DHT22;42950;52.134;5.578;2023-03-05T03:22:44;4.50;99.90
23721;DHT22;42950;52.134;5.578;2023-03-05T03:25:14;4.50;99.90
23721;DHT22;42950;52.134;5.578;2023-03-05T03:27:40;4.50;99.90
23721;DHT22;42950;52.134;5.578;2023-03-05T03:30:06;4.50;99.90
23721;DHT22;42950;52.134;5.578;2023-03-05T03:32:32;4.50;99.90
23721;DHT22;42950;52.134;5.578;2023-03-05T03:34:59;4.60;99.90
23721;DHT22;42950;52.134;5.578;2023-03-05T03:37:25;4.60;99.90
23721;DHT22;42950;52.134;5.578;2023-03-05T03:39:50;4.50;99.90
23721;DHT22;42950;52.134;5.578;2023-03-05T03:42:20;4.50;99.90
23721;DHT22;42950;52.134;5.578;2023-03-05T03:44:48;4.50;99.90
23721;DHT22;42950;52.134;5.578;2023-03-05T03:47:14;4.40;99.90
23721;DHT22;42950;52.134;5.578;2023-03-05T03:49:40;4.40;99.90
23721;DHT22;42950;52.134;5.578;2023-03-05T03:52:05;4.40;99.90
23721;DHT22;42950;52.134;5.578;2023-03-05T03:54:32;4.30;99.90
23721;DHT22;42950;52.134;5.578;2023-03-05T03:56:58;4.40;99.90
23721;DHT22;42950;52.134;5.578;2023-03-05T03:59:25;4.30;99.90
23721;DHT22;42950;52.134;5.578;2023-03-05T04:01:51;4.30;99.90
23721;DHT22;42950;52.134;5.578;2023-03-05T04:04:16;4.40;99.90
23721;DHT22;42950;52.134;5.578;2023-03-05T04:06:42;4.40;99.90
23721;DHT22;42950;52.134;5.578;2023-03-05T04:09:08;4.40;99.90
23721;DHT22;42950;52.134;5.578;2023-03-05T04:11:35;4.40;99.90
23721;DHT22;42950;52.134;5.578;2023-03-05T04:14:01;4.40;99.90
23721;DHT22;42950;52.134;5.578;2023-03-05T04:16:26;4.40;99.90
23721;DHT22;42950;52.134;5.578;2023-03-05T04:18:52;4.40;99.90
23721;DHT22;42950;52.134;5.578;2023-03-05T04:21:18;4.40;99.90
23721;DHT22;42950;52.134;5.578;2023-03-05T04:23:43;4.40;99.90
23721;DHT22;42950;52.134;5.578;2023-03-05T04:26:10;4.40;99.90
23721;DHT22;42950;52.134;5.578;2023-03-05T04:28:36;4.40;99.90
23721;DHT22;42950;52.134;5.578;2023-03-05T04:31:02;4.30;99.90
23721;DHT22;42950;52.134;5.578;2023-03-05T04:33:28;4.30;99.90
23721;DHT22;42950;52.134;5.578;2023-03-05T04:35:53;4.30;99.90
23721;DHT22;42950;52.134;5.578;2023-03-05T04:38:19;4.30;99.90
23721;DHT22;42950;52.134;5.578;2023-03-05T04:40:45;4.30;99.90
23721;DHT22;42950;52.134;5.578;2023-03-05T04:43:11;4.20;99.90
23721;DHT22;42950;52.134;5.578;2023-03-05T04:45:40;4.30;99.90
23721;DHT22;42950;52.134;5.578;2023-03-05T04:48:06;4.30;99.90
23721;DHT22;42950;52.134;5.578;2023-03-05T04:50:32;4.40;99.90
23721;DHT22;42950;52.134;5.578;2023-03-05T04:52:57;4.40;99.90
23721;DHT22;42950;52.134;5.578;2023-03-05T04:55:25;4.50;99.90
23721;DHT22;42950;52.134;5.578;2023-03-05T04:57:51;4.40;99.90
23721;DHT22;42950;52.134;5.578;2023-03-05T05:00:17;4.50;99.90
23721;DHT22;42950;52.134;5.578;2023-03-05T05:02:46;4.50;99.90
23721;DHT22;42950;52.134;5.578;2023-03-05T05:05:15;4.50;99.90
23721;DHT22;42950;52.134;5.578;2023-03-05T05:07:41;4.50;99.90
23721;DHT22;42950;52.134;5.578;2023-03-05T05:10:08;4.60;99.90
23721;DHT22;42950;52.134;5.578;2023-03-05T05:12:35;4.50;99.90
23721;DHT22;42950;52.134;5.578;2023-03-05T05:15:01;4.50;99.90
23721;DHT22;42950;52.134;5.578;2023-03-05T05:17:26;4.50;99.90
23721;DHT22;42950;52.134;5.578;2023-03-05T05:19:56;4.40;99.90
23721;DHT22;42950;52.134;5.578;2023-03-05T05:22:22;4.30;99.90
23721;DHT22;42950;52.134;5.578;2023-03-05T05:24:47;4.30;99.90
23721;DHT22;42950;52.134;5.578;2023-03-05T05:27:13;4.30;99.90
23721;DHT22;42950;52.134;5.578;2023-03-05T05:29:39;4.30;99.90
23721;DHT22;42950;52.134;5.578;2023-03-05T05:32:04;4.40;99.90
23721;DHT22;42950;52.134;5.578;2023-03-05T05:34:30;4.40;99.90
23721;DHT22;42950;52.134;5.578;2023-03-05T05:36:56;4.30;99.90
23721;DHT22;42950;52.134;5.578;2023-03-05T05:39:22;4.30;99.90
23721;DHT22;42950;52.134;5.578;2023-03-05T05:41:51;4.30;99.90
23721;DHT22;42950;52.134;5.578;2023-03-05T05:44:17;4.30;99.90
23721;DHT22;42950;52.134;5.578;2023-03-05T05:46:43;4.30;99.90
23721;DHT22;42950;52.134;5.578;2023-03-05T05:49:08;4.40;99.90
23721;DHT22;42950;52.134;5.578;2023-03-05T05:51:35;4.30;99.90
23721;DHT22;42950;52.134;5.578;2023-03-05T05:54:01;4.30;99.90
23721;DHT22;42950;52.134;5.578;2023-03-05T05:56:27;4.20;99.90
23721;DHT22;42950;52.134;5.578;2023-03-05T05:58:53;4.20;99.90
23721;DHT22;42950;52.134;5.578;2023-03-05T06:01:23;4.20;99.90
23721;DHT22;42950;52.134;5.578;2023-03-05T06:03:51;4.20;99.90
23721;DHT22;42950;52.134;5.578;2023-03-05T06:06:18;4.20;99.90
23721;DHT22;42950;52.134;5.578;2023-03-05T06:08:44;4.30;99.90
23721;DHT22;42950;52.134;5.578;2023-03-05T06:11:10;4.30;99.90
23721;DHT22;42950;52.134;5.578;2023-03-05T06:13:36;4.20;99.90
23721;DHT22;42950;52.134;5.578;2023-03-05T06:16:04;4.10;99.90
23721;DHT22;42950;52.134;5.578;2023-03-05T06:18:31;4.10;99.90
23721;DHT22;42950;52.134;5.578;2023-03-05T06:20:59;4.20;99.90
23721;DHT22;42950;52.134;5.578;2023-03-05T06:23:26;4.20;99.90
23721;DHT22;42950;52.134;5.578;2023-03-05T06:25:53;4.10;99.90
23721;DHT22;42950;52.134;5.578;2023-03-05T06:28:19;4.10;99.90
23721;DHT22;42950;52.134;5.578;2023-03-05T06:30:45;4.00;99.90
23721;DHT22;42950;52.134;5.578;2023-03-05T06:33:11;4.00;99.90
23721;DHT22;42950;52.134;5.578;2023-03-05T06:35:39;4.00;99.90
23721;DHT22;42950;52.134;5.578;2023-03-05T06:38:06;4.00;99.90
23721;DHT22;42950;52.134;5.578;2023-03-05T06:40:32;4.10;99.90
23721;DHT22;42950;52.134;5.578;2023-03-05T06:42:57;4.10;99.90
23721;DHT22;42950;52.134;5.578;2023-03-05T06:45:23;4.00;99.90
23721;DHT22;42950;52.134;5.578;2023-03-05T06:47:49;4.10;99.90
23721;DHT22;42950;52.134;5.578;2023-03-05T06:50:14;4.10;99.90
23721;DHT22;42950;52.134;5.578;2023-03-05T06:52:40;4.10;99.90
23721;DHT22;42950;52.134;5.578;2023-03-05T06:55:06;4.10;99.90
23721;DHT22;42950;52.134;5.578;2023-03-05T06:57:33;4.10;99.90
23721;DHT22;42950;52.134;5.578;2023-03-05T06:59:59;4.10;99.90
23721;DHT22;42950;52.134;5.578;2023-03-05T07:02:24;4.20;99.90
23721;DHT22;42950;52.134;5.578;2023-03-05T07:04:50;4.30;99.90
23721;DHT22;42950;52.134;5.578;2023-03-05T07:07:16;4.40;99.90
23721;DHT22;42950;52.134;5.578;2023-03-05T07:09:42;4.40;99.90
23721;DHT22;42950;52.134;5.578;2023-03-05T07:12:10;4.40;99.90
23721;DHT22;42950;52.134;5.578;2023-03-05T07:14:39;4.40;99.90
23721;DHT22;42950;52.134;5.578;2023-03-05T07:17:05;4.30;99.90
23721;DHT22;42950;52.134;5.578;2023-03-05T07:19:31;4.40;99.90
23721;DHT22;42950;52.134;5.578;2023-03-05T07:21:57;4.30;99.90
23721;DHT22;42950;52.134;5.578;2023-03-05T07:24:22;4.40;99.90
23721;DHT22;42950;52.134;5.578;2023-03-05T07:26:53;4.50;99.90
23721;DHT22;42950;52.134;5.578;2023-03-05T07:29:18;4.50;99.90
23721;DHT22;42950;52.134;5.578;2023-03-05T07:31:44;4.60;99.90
23721;DHT22;42950;52.134;5.578;2023-03-05T07:34:09;4.70;99.90
23721;DHT22;42950;52.134;5.578;2023-03-05T07:36:35;4.60;99.90
23721;DHT22;42950;52.134;5.578;2023-03-05T07:39:03;4.60;99.90
23721;DHT22;42950;52.134;5.578;2023-03-05T07:41:29;4.60;99.90
23721;DHT22;42950;52.134;5.578;2023-03-05T07:43:55;4.50;99.90
23721;DHT22;42950;52.134;5.578;2023-03-05T07:46:26;4.40;99.90
23721;DHT22;42950;52.134;5.578;2023-03-05T07:48:52;4.40;99.90
23721;DHT22;42950;52.134;5.578;2023-03-05T07:51:22;4.50;99.90
23721;DHT22;42950;52.134;5.578;2023-03-05T07:53:48;4.60;99.90
23721;DHT22;42950;52.134;5.578;2023-03-05T07:56:33;4.50;99.90
23721;DHT22;42950;52.134;5.578;2023-03-05T07:59:02;4.60;99.90
23721;DHT22;42950;52.134;5.578;2023-03-05T08:01:29;4.60;99.90
23721;DHT22;42950;52.134;5.578;2023-03-05T08:03:55;4.60;99.90
23721;DHT22;42950;52.134;5.578;2023-03-05T08:06:21;4.60;99.90
23721;DHT22;42950;52.134;5.578;2023-03-05T08:08:46;4.60;99.90
23721;DHT22;42950;52.134;5.578;2023-03-05T08:11:14;4.60;99.90
23721;DHT22;42950;52.134;5.578;2023-03-05T08:13:40;4.60;99.90
23721;DHT22;42950;52.134;5.578;2023-03-05T08:16:09;4.60;99.90
23721;DHT22;42950;52.134;5.578;2023-03-05T08:18:35;4.70;99.90
23721;DHT22;42950;52.134;5.578;2023-03-05T08:21:01;4.70;99.90
23721;DHT22;42950;52.134;5.578;2023-03-05T08:23:27;4.80;99.90
23721;DHT22;42950;52.134;5.578;2023-03-05T08:25:52;4.80;99.90
23721;DHT22;42950;52.134;5.578;2023-03-05T08:28:18;4.90;99.90
23721;DHT22;42950;52.134;5.578;2023-03-05T08:30:45;5.00;99.90
23721;DHT22;42950;52.134;5.578;2023-03-05T08:33:11;5.10;99.90
23721;DHT22;42950;52.134;5.578;2023-03-05T08:35:37;5.10;99.90
23721;DHT22;42950;52.134;5.578;2023-03-05T08:38:03;5.00;99.90
23721;DHT22;42950;52.134;5.578;2023-03-05T08:40:29;5.00;99.90
23721;DHT22;42950;52.134;5.578;2023-03-05T08:42:55;5.10;99.90
23721;DHT22;42950;52.134;5.578;2023-03-05T08:45:21;5.20;99.90
23721;DHT22;42950;52.134;5.578;2023-03-05T08:47:48;5.30;99.90
23721;DHT22;42950;52.134;5.578;2023-03-05T08:50:13;5.50;99.90
23721;DHT22;42950;52.134;5.578;2023-03-05T08:52:39;5.50;99.90
23721;DHT22;42950;52.134;5.578;2023-03-05T08:55:05;5.40;99.90
23721;DHT22;42950;52.134;5.578;2023-03-05T08:57:30;5.40;99.90
23721;DHT22;42950;52.134;5.578;2023-03-05T08:59:56;5.50;99.90
23721;DHT22;42950;52.134;5.578;2023-03-05T09:02:21;5.60;99.90
23721;DHT22;42950;52.134;5.578;2023-03-05T09:04:47;5.60;99.90
23721;DHT22;42950;52.134;5.578;2023-03-05T09:07:12;5.50;99.90
23721;DHT22;42950;52.134;5.578;2023-03-05T09:09:38;5.60;99.90
23721;DHT22;42950;52.134;5.578;2023-03-05T09:12:04;5.70;99.90
23721;DHT22;42950;52.134;5.578;2023-03-05T09:14:30;5.70;99.90
23721;DHT22;42950;52.134;5.578;2023-03-05T09:16:56;5.60;99.90
23721;DHT22;42950;52.134;5.578;2023-03-05T09:19:21;5.70;99.90
23721;DHT22;42950;52.134;5.578;2023-03-05T09:21:47;5.70;99.90
23721;DHT22;42950;52.134;5.578;2023-03-05T09:24:13;5.80;99.90
23721;DHT22;42950;52.134;5.578;2023-03-05T09:26:38;5.80;99.90
23721;DHT22;42950;52.134;5.578;2023-03-05T09:29:05;5.80;99.90
23721;DHT22;42950;52.134;5.578;2023-03-05T09:31:33;5.90;99.90
23721;DHT22;42950;52.134;5.578;2023-03-05T09:33:59;6.00;99.90
23721;DHT22;42950;52.134;5.578;2023-03-05T09:36:29;6.00;99.90
23721;DHT22;42950;52.134;5.578;2023-03-05T09:38:55;6.00;99.90
23721;DHT22;42950;52.134;5.578;2023-03-05T09:47:01;6.10;99.90
23721;DHT22;42950;52.134;5.578;2023-03-05T09:49:44;6.10;99.90
23721;DHT22;42950;52.134;5.578;2023-03-05T09:52:20;6.20;99.90
23721;DHT22;42950;52.134;5.578;2023-03-05T09:54:50;6.20;99.90
23721;DHT22;42950;52.134;5.578;2023-03-05T09:57:31;6.10;99.90
23721;DHT22;42950;52.134;5.578;2023-03-05T10:00:03;6.30;99.90
23721;DHT22;42950;52.134;5.578;2023-03-05T10:02:36;6.50;99.90
23721;DHT22;42950;52.134;5.578;2023-03-05T10:08:11;6.30;99.90
23721;DHT22;42950;52.134;5.578;2023-03-05T10:10:47;6.20;99.90
23721;DHT22;42950;52.134;5.578;2023-03-05T10:13:29;6.40;99.90
23721;DHT22;42950;52.134;5.578;2023-03-05T10:16:09;6.50;99.90
23721;DHT22;42950;52.134;5.578;2023-03-05T10:22:02;6.50;99.90
23721;DHT22;42950;52.134;5.578;2023-03-05T10:24:51;6.30;99.90
23721;DHT22;42950;52.134;5.578;2023-03-05T10:27:38;6.30;99.90
23721;DHT22;42950;52.134;5.578;2023-03-05T10:30:25;6.40;99.90
23721;DHT22;42950;52.134;5.578;2023-03-05T10:33:16;6.40;99.90
23721;DHT22;42950;52.134;5.578;2023-03-05T10:38:39;6.20;99.90
23721;DHT22;42950;52.134;5.578;2023-03-05T10:41:25;6.30;99.90
23721;DHT22;42950;52.134;5.578;2023-03-05T10:44:18;6.40;99.90
23721;DHT22;42950;52.134;5.578;2023-03-05T10:46:46;6.50;99.90
23721;DHT22;42950;52.134;5.578;2023-03-05T10:49:24;6.50;99.90
23721;DHT22;42950;52.134;5.578;2023-03-05T10:54:27;6.60;99.90
23721;DHT22;42950;52.134;5.578;2023-03-05T10:57:22;6.60;99.90
23721;DHT22;42950;52.134;5.578;2023-03-05T11:02:31;6.80;99.90
23721;DHT22;42950;52.134;5.578;2023-03-05T11:04:57;6.80;99.90
23721;DHT22;42950;52.134;5.578;2023-03-05T11:12:37;7.10;99.90
23721;DHT22;42950;52.134;5.578;2023-03-05T11:15:25;7.00;99.90
23721;DHT22;42950;52.134;5.578;2023-03-05T11:18:18;7.10;99.90
23721;DHT22;42950;52.134;5.578;2023-03-05T11:20:45;7.20;99.90
23721;DHT22;42950;52.134;5.578;2023-03-05T11:23:20;7.30;99.90
23721;DHT22;42950;52.134;5.578;2023-03-05T11:28:38;7.60;99.90
23721;DHT22;42950;52.134;5.578;2023-03-05T11:33:57;7.70;99.90
23721;DHT22;42950;52.134;5.578;2023-03-05T11:36:25;7.90;99.90
23721;DHT22;42950;52.134;5.578;2023-03-05T11:39:09;7.60;99.90
23721;DHT22;42950;52.134;5.578;2023-03-05T11:41:48;7.50;99.90
23721;DHT22;42950;52.134;5.578;2023-03-05T11:49:34;7.40;99.90
23721;DHT22;42950;52.134;5.578;2023-03-05T11:52:20;7.40;99.90
23721;DHT22;42950;52.134;5.578;2023-03-05T11:57:26;7.50;99.90
23721;DHT22;42950;52.134;5.578;2023-03-05T11:59:55;7.40;99.90
23721;DHT22;42950;52.134;5.578;2023-03-05T12:02:24;7.60;99.90
23721;DHT22;42950;52.134;5.578;2023-03-05T12:04:51;7.70;99.90
23721;DHT22;42950;52.134;5.578;2023-03-05T12:07:34;7.70;99.90
23721;DHT22;42950;52.134;5.578;2023-03-05T12:10:02;7.80;99.90
23721;DHT22;42950;52.134;5.578;2023-03-05T12:12:46;8.00;99.90
23721;DHT22;42950;52.134;5.578;2023-03-05T12:18:37;7.60;99.90
23721;DHT22;42950;52.134;5.578;2023-03-05T12:23:57;7.70;99.90
23721;DHT22;42950;52.134;5.578;2023-03-05T12:31:56;7.70;99.90
23721;DHT22;42950;52.134;5.578;2023-03-05T12:34:35;7.70;99.90
23721;DHT22;42950;52.134;5.578;2023-03-05T12:37:12;7.60;99.90
23721;DHT22;42950;52.134;5.578;2023-03-05T12:47:45;7.70;99.90
23721;DHT22;42950;52.134;5.578;2023-03-05T12:55:37;7.80;99.90
23721;DHT22;42950;52.134;5.578;2023-03-05T13:01:00;8.00;99.90
23721;DHT22;42950;52.134;5.578;2023-03-05T13:03:52;7.90;99.90
23721;DHT22;42950;52.134;5.578;2023-03-05T13:06:32;8.00;99.90
23721;DHT22;42950;52.134;5.578;2023-03-05T13:11:31;8.20;99.90
23721;DHT22;42950;52.134;5.578;2023-03-05T13:13:59;8.20;99.90
23721;DHT22;42950;52.134;5.578;2023-03-05T13:16:27;8.20;99.90
23721;DHT22;42950;52.134;5.578;2023-03-05T13:18:56;8.00;99.90
23721;DHT22;42950;52.134;5.578;2023-03-05T13:21:25;7.90;99.90
23721;DHT22;42950;52.134;5.578;2023-03-05T13:23:54;7.70;99.90
23721;DHT22;42950;52.134;5.578;2023-03-05T13:26:38;7.80;99.90
23721;DHT22;42950;52.134;5.578;2023-03-05T13:34:20;7.80;99.90
23721;DHT22;42950;52.134;5.578;2023-03-05T13:36:52;7.90;99.90
23721;DHT22;42950;52.134;5.578;2023-03-05T13:39:22;7.80;99.90
23721;DHT22;42950;52.134;5.578;2023-03-05T13:42:14;7.80;99.90
23721;DHT22;42950;52.134;5.578;2023-03-05T13:44:41;7.90;99.90
23721;DHT22;42950;52.134;5.578;2023-03-05T13:47:20;7.90;99.90
23721;DHT22;42950;52.134;5.578;2023-03-05T13:49:54;8.10;99.90
23721;DHT22;42950;52.134;5.578;2023-03-05T13:52:28;8.10;99.90
23721;DHT22;42950;52.134;5.578;2023-03-05T13:54:56;8.20;99.90
23721;DHT22;42950;52.134;5.578;2023-03-05T13:57:42;8.20;99.90
23721;DHT22;42950;52.134;5.578;2023-03-05T14:02:55;8.10;99.90
23721;DHT22;42950;52.134;5.578;2023-03-05T14:05:21;8.00;99.90
23721;DHT22;42950;52.134;5.578;2023-03-05T14:07:51;8.10;99.90
23721;DHT22;42950;52.134;5.578;2023-03-05T14:13:02;7.90;99.90
23721;DHT22;42950;52.134;5.578;2023-03-05T14:15:31;7.90;99.90
23721;DHT22;42950;52.134;5.578;2023-03-05T14:20:40;8.00;99.90
23721;DHT22;42950;52.134;5.578;2023-03-05T14:23:25;8.00;99.90
23721;DHT22;42950;52.134;5.578;2023-03-05T14:25:51;7.90;99.90
23721;DHT22;42950;52.134;5.578;2023-03-05T14:30:48;8.10;99.90
23721;DHT22;42950;52.134;5.578;2023-03-05T14:33:20;8.20;99.90
23721;DHT22;42950;52.134;5.578;2023-03-05T14:35:49;8.30;99.90
23721;DHT22;42950;52.134;5.578;2023-03-05T14:38:27;8.40;99.90
23721;DHT22;42950;52.134;5.578;2023-03-05T14:40:54;8.40;99.90
23721;DHT22;42950;52.134;5.578;2023-03-05T14:43:19;8.30;99.90
23721;DHT22;42950;52.134;5.578;2023-03-05T14:45:45;8.30;99.90
23721;DHT22;42950;52.134;5.578;2023-03-05T14:48:14;8.10;99.90
23721;DHT22;42950;52.134;5.578;2023-03-05T14:53:15;8.00;99.90
23721;DHT22;42950;52.134;5.578;2023-03-05T14:55:42;8.00;99.90
23721;DHT22;42950;52.134;5.578;2023-03-05T14:58:41;7.90;99.90
23721;DHT22;42950;52.134;5.578;2023-03-05T15:01:10;7.70;99.90
23721;DHT22;42950;52.134;5.578;2023-03-05T15:03:36;7.60;99.90
23721;DHT22;42950;52.134;5.578;2023-03-05T15:06:04;7.60;99.90
23721;DHT22;42950;52.134;5.578;2023-03-05T15:08:30;7.60;99.90
23721;DHT22;42950;52.134;5.578;2023-03-05T15:10:57;7.40;99.90
23721;DHT22;42950;52.134;5.578;2023-03-05T15:13:23;7.20;99.90
23721;DHT22;42950;52.134;5.578;2023-03-05T15:15:49;7.20;99.90
23721;DHT22;42950;52.134;5.578;2023-03-05T15:18:17;7.20;99.90
23721;DHT22;42950;52.134;5.578;2023-03-05T15:20:44;7.10;99.90
23721;DHT22;42950;52.134;5.578;2023-03-05T15:23:10;7.20;99.90
23721;DHT22;42950;52.134;5.578;2023-03-05T15:25:37;7.10;99.90
23721;DHT22;42950;52.134;5.578;2023-03-05T15:28:03;7.20;99.90
23721;DHT22;42950;52.134;5.578;2023-03-05T15:30:31;7.20;99.90
23721;DHT22;42950;52.134;5.578;2023-03-05T15:33:01;7.10;99.90
23721;DHT22;42950;52.134;5.578;2023-03-05T15:35:27;7.00;99.90
23721;DHT22;42950;52.134;5.578;2023-03-05T15:37:53;6.90;99.90
23721;DHT22;42950;52.134;5.578;2023-03-05T15:40:19;6.90;99.90
23721;DHT22;42950;52.134;5.578;2023-03-05T15:42:45;6.90;99.90
23721;DHT22;42950;52.134;5.578;2023-03-05T15:45:11;6.90;99.90
23721;DHT22;42950;52.134;5.578;2023-03-05T15:47:36;7.00;99.90
23721;DHT22;42950;52.134;5.578;2023-03-05T15:50:02;7.00;99.90
23721;DHT22;42950;52.134;5.578;2023-03-05T15:52:28;6.90;99.90
23721;DHT22;42950;52.134;5.578;2023-03-05T15:54:53;6.90;99.90
23721;DHT22;42950;52.134;5.578;2023-03-05T15:57:19;6.90;99.90
23721;DHT22;42950;52.134;5.578;2023-03-05T15:59:48;6.90;99.90
23721;DHT22;42950;52.134;5.578;2023-03-05T16:02:14;6.90;99.90
23721;DHT22;42950;52.134;5.578;2023-03-05T16:04:39;7.00;99.90
23721;DHT22;42950;52.134;5.578;2023-03-05T16:07:05;6.90;99.90
23721;DHT22;42950;52.134;5.578;2023-03-05T16:09:38;6.90;99.90
23721;DHT22;42950;52.134;5.578;2023-03-05T16:12:09;7.00;99.90
23721;DHT22;42950;52.134;5.578;2023-03-05T16:14:36;6.90;99.90
23721;DHT22;42950;52.134;5.578;2023-03-05T16:17:03;6.90;99.90
23721;DHT22;42950;52.134;5.578;2023-03-05T16:19:30;6.80;99.90
23721;DHT22;42950;52.134;5.578;2023-03-05T16:21:56;6.80;99.90
23721;DHT22;42950;52.134;5.578;2023-03-05T16:24:21;6.80;99.90
23721;DHT22;42950;52.134;5.578;2023-03-05T16:26:47;6.70;99.90
23721;DHT22;42950;52.134;5.578;2023-03-05T16:29:13;6.80;99.90
23721;DHT22;42950;52.134;5.578;2023-03-05T16:31:38;6.80;99.90
23721;DHT22;42950;52.134;5.578;2023-03-05T16:34:07;6.80;99.90
23721;DHT22;42950;52.134;5.578;2023-03-05T16:36:33;6.80;99.90
23721;DHT22;42950;52.134;5.578;2023-03-05T16:39:02;6.80;99.90
23721;DHT22;42950;52.134;5.578;2023-03-05T16:41:27;6.80;99.90
23721;DHT22;42950;52.134;5.578;2023-03-05T16:43:54;6.70;99.90
23721;DHT22;42950;52.134;5.578;2023-03-05T16:46:24;6.60;99.90
23721;DHT22;42950;52.134;5.578;2023-03-05T16:48:50;6.70;99.90
23721;DHT22;42950;52.134;5.578;2023-03-05T16:51:16;6.50;99.90
23721;DHT22;42950;52.134;5.578;2023-03-05T16:53:41;6.50;99.90
23721;DHT22;42950;52.134;5.578;2023-03-05T16:56:08;6.50;99.90
23721;DHT22;42950;52.134;5.578;2023-03-05T16:58:35;6.60;99.90
23721;DHT22;42950;52.134;5.578;2023-03-05T17:01:02;6.60;99.90
23721;DHT22;42950;52.134;5.578;2023-03-05T17:03:28;6.70;99.90
23721;DHT22;42950;52.134;5.578;2023-03-05T17:05:54;6.60;99.90
23721;DHT22;42950;52.134;5.578;2023-03-05T17:08:20;6.80;99.90
23721;DHT22;42950;52.134;5.578;2023-03-05T17:10:46;6.70;99.90
23721;DHT22;42950;52.134;5.578;2023-03-05T17:13:11;6.60;99.90
23721;DHT22;42950;52.134;5.578;2023-03-05T17:15:37;6.60;99.90
23721;DHT22;42950;52.134;5.578;2023-03-05T17:18:03;6.50;99.90
23721;DHT22;42950;52.134;5.578;2023-03-05T17:20:28;6.40;99.90